Time;durP1;ratioP1;P1;durP2;ratioP2;P2;SDS_P1;SDS_P2;PMS_P1;PMS_P2;Temp;Humidity;BMP_temperature;BMP_pressure;BME280_temperature;BME280_humidity;BME280_pressure;Samples;Min_cycle;Max_cycle;Signal;HPM_P1;HPM_P2
2021/07/12 00:02:10;;;;;;;4.70;4.40;;;;;;;20.62;79.14;102023.25;6341167;28;20186;-75
2021/07/12 00:05:16;;;;;;;4.80;4.35;;;;;;;20.60;79.06;102020.72;6340387;28;20378;-75
2021/07/12 00:08:22;;;;;;;5.25;4.82;;;;;;;20.47;80.32;102029.38;6339978;28;20234;-75
2021/07/12 00:11:25;;;;;;;7.10;4.60;;;;;;;20.54;79.68;102018.97;6341267;28;20259;-75
2021/07/12 00:14:30;;;;;;;6.00;4.30;;;;;;;20.62;79.88;102024.06;6339857;28;20487;-75
2021/07/12 00:17:35;;;;;;;5.43;4.93;;;;;;;20.55;80.14;102024.25;6340872;28;20194;-75
2021/07/12 00:20:39;;;;;;;4.35;4.18;;;;;;;20.56;80.07;102019.56;6340794;28;20198;-74
2021/07/12 00:23:45;;;;;;;4.95;4.53;;;;;;;20.61;80.00;102019.63;6322406;28;20203;-75
2021/07/12 00:26:49;;;;;;;5.35;4.38;;;;;;;20.50;80.47;102012.25;6322874;28;20267;-75
2021/07/12 00:29:56;;;;;;;7.75;4.60;;;;;;;20.53;80.11;102020.06;6340379;28;20261;-75
2021/07/12 00:33:01;;;;;;;4.93;4.55;;;;;;;20.43;80.69;102022.69;6339618;28;20299;-75
2021/07/12 00:36:05;;;;;;;4.57;4.18;;;;;;;20.45;80.18;102020.50;6340351;28;20183;-75
2021/07/12 00:39:12;;;;;;;7.30;4.35;;;;;;;20.50;79.99;102029.72;6322451;28;20206;-75
2021/07/12 00:42:16;;;;;;;4.57;4.32;;;;;;;20.46;80.83;102030.50;6321477;28;20528;-75
2021/07/12 00:45:24;;;;;;;4.40;4.00;;;;;;;20.46;80.84;102027.72;6340493;28;20235;-75
2021/07/12 00:48:33;;;;;;;5.18;4.13;;;;;;;20.48;79.66;102028.31;6340454;28;20218;-75
2021/07/12 00:51:38;;;;;;;4.32;4.00;;;;;;;20.53;78.45;102036.69;6340420;28;20183;-75
2021/07/12 00:54:43;;;;;;;4.18;3.83;;;;;;;20.53;78.70;102043.09;6339961;28;20258;-75
2021/07/12 00:57:49;;;;;;;4.47;3.95;;;;;;;20.54;77.71;102044.75;6340279;28;20187;-75
2021/07/12 01:00:55;;;;;;;4.03;3.75;;;;;;;20.50;78.45;102039.97;6339735;28;20187;-75
2021/07/12 01:03:59;;;;;;;4.47;3.97;;;;;;;20.44;78.56;102041.00;6339055;28;20183;-75
2021/07/12 01:07:10;;;;;;;4.10;3.78;;;;;;;20.42;78.78;102037.63;6339626;28;20253;-75
2021/07/12 01:10:17;;;;;;;3.55;3.35;;;;;;;20.32;78.31;102046.63;6339899;28;20187;-74
2021/07/12 01:13:35;;;;;;;3.58;3.28;;;;;;;20.40;74.49;102042.59;6339587;28;20183;-75
2021/07/12 01:16:59;;;;;;;3.53;3.22;;;;;;;20.28;73.15;102048.22;6339800;28;20242;-75
2021/07/12 01:20:36;;;;;;;2.75;2.70;;;;;;;20.31;72.42;102050.47;6321446;28;20392;-75
2021/07/12 01:24:08;;;;;;;2.90;2.90;;;;;;;20.29;70.86;102035.19;6305654;28;20221;-75
2021/07/12 01:27:46;;;;;;;4.25;3.30;;;;;;;20.13;70.09;102047.09;6308407;28;20433;-75
2021/07/12 01:31:36;;;;;;;3.42;3.28;;;;;;;20.25;72.14;102061.75;6320071;28;20262;-76
2021/07/12 01:34:49;;;;;;;3.40;3.13;;;;;;;20.19;71.72;102049.69;6320225;28;20225;-75
2021/07/12 01:38:07;;;;;;;2.85;2.72;;;;;;;20.18;70.27;102049.97;6319606;28;20210;-75
2021/07/12 01:41:24;;;;;;;3.30;3.00;;;;;;;20.09;69.84;102051.44;6321430;28;20228;-75
2021/07/12 01:44:41;;;;;;;3.35;2.60;;;;;;;20.12;69.32;102051.78;6320436;28;20207;-75
2021/07/12 01:47:59;;;;;;;3.13;2.85;;;;;;;20.12;70.54;102053.72;6320695;28;20218;-75
2021/07/12 01:51:11;;;;;;;3.35;2.50;;;;;;;20.10;70.20;102054.00;6320737;28;20203;-75
2021/07/12 01:54:22;;;;;;;3.20;3.03;;;;;;;20.11;69.87;102055.66;6320786;28;20215;-75
2021/07/12 01:57:32;;;;;;;3.13;2.85;;;;;;;20.06;69.08;102063.03;6319490;28;20284;-75
2021/07/12 02:00:44;;;;;;;2.75;2.60;;;;;;;20.06;68.93;102068.56;6319458;28;20199;-75
2021/07/12 02:03:50;;;;;;;2.47;2.47;;;;;;;20.09;68.66;102068.06;6320521;28;20199;-75
2021/07/12 02:06:58;;;;;;;3.15;2.90;;;;;;;20.04;69.31;102065.22;6338691;28;20191;-75
2021/07/12 02:10:10;;;;;;;3.70;2.70;;;;;;;20.07;69.92;102061.94;6337044;28;20514;-75
2021/07/12 02:13:27;;;;;;;2.65;2.55;;;;;;;20.11;68.80;102060.38;6319365;28;20199;-75
2021/07/12 02:16:40;;;;;;;4.93;2.63;;;;;;;20.10;69.98;102067.00;6319008;28;20203;-75
2021/07/12 02:19:48;;;;;;;4.57;3.35;;;;;;;20.06;70.19;102063.03;6319323;28;20501;-75
2021/07/12 02:22:55;;;;;;;3.03;2.88;;;;;;;20.09;69.87;102063.38;6337059;28;20182;-75
2021/07/12 02:26:01;;;;;;;2.92;2.72;;;;;;;19.98;69.21;102072.59;6319485;28;20481;-75
2021/07/12 02:29:09;;;;;;;2.83;2.65;;;;;;;20.06;67.99;102063.03;6319191;28;20406;-75
2021/07/12 02:32:17;;;;;;;2.83;2.63;;;;;;;20.00;69.06;102067.66;6318715;28;20525;-75
2021/07/12 02:35:22;;;;;;;2.78;2.67;;;;;;;20.03;69.00;102074.63;6337807;28;20215;-75
2021/07/12 02:38:28;;;;;;;2.80;2.70;;;;;;;19.90;68.27;102076.59;6319363;28;20314;-75
2021/07/12 02:41:34;;;;;;;3.92;2.70;;;;;;;20.04;67.74;102070.75;6337703;28;20190;-75
2021/07/12 02:44:45;;;;;;;2.70;2.53;;;;;;;20.04;70.70;102073.53;6337561;28;20190;-75
2021/07/12 02:47:51;;;;;;;2.55;2.55;;;;;;;19.91;69.15;102078.31;6318434;28;20436;-75
2021/07/12 02:50:58;;;;;;;2.75;2.42;;;;;;;20.00;68.44;102074.03;6336502;28;20237;-75
2021/07/12 02:54:05;;;;;;;2.88;2.78;;;;;;;19.95;68.10;102070.34;6337409;28;20246;-75
2021/07/12 02:57:11;;;;;;;2.50;2.40;;;;;;;19.94;69.03;102077.81;6318055;28;20207;-75
2021/07/12 03:00:16;;;;;;;2.45;2.25;;;;;;;19.94;68.43;102077.81;6319287;28;20209;-75
2021/07/12 03:03:20;;;;;;;5.32;2.88;;;;;;;19.87;68.57;102085.44;6337497;28;20187;-75
2021/07/12 03:06:29;;;;;;;2.50;2.40;;;;;;;19.97;67.36;102077.31;6336358;28;20183;-75
2021/07/12 03:09:39;;;;;;;2.45;2.35;;;;;;;19.96;66.46;102080.31;6337521;28;20206;-75
2021/07/12 03:12:50;;;;;;;2.83;2.67;;;;;;;19.97;67.18;102082.84;6336577;28;20190;-75
2021/07/12 03:15:57;;;;;;;2.55;2.40;;;;;;;19.92;66.80;102082.75;6319260;28;20199;-75
2021/07/12 03:19:06;;;;;;;2.30;2.20;;;;;;;19.93;66.44;102076.13;6336187;28;20485;-75
2021/07/12 03:22:12;;;;;;;2.38;2.38;;;;;;;20.03;66.78;102081.00;6317881;28;20253;-76
2021/07/12 03:25:31;;;;;;;2.60;2.40;;;;;;;19.90;66.61;102082.16;6318406;28;20206;-75
2021/07/12 03:28:38;;;;;;;2.40;2.33;;;;;;;19.94;66.97;102086.13;6335878;28;20412;-75
2021/07/12 03:31:44;;;;;;;2.95;2.50;;;;;;;19.99;66.90;102079.81;6310001;28;20294;-75
2021/07/12 03:34:51;;;;;;;2.40;2.30;;;;;;;20.00;67.08;102073.19;6309929;28;20230;-75
2021/07/12 03:37:56;;;;;;;2.40;2.30;;;;;;;19.99;68.21;102083.44;6309672;28;20203;-75
2021/07/12 03:41:02;;;;;;;2.60;2.40;;;;;;;20.03;67.50;102088.50;6312142;28;20257;-75
2021/07/12 03:44:08;;;;;;;2.67;2.53;;;;;;;20.09;66.82;102084.69;6310054;28;20261;-75
2021/07/12 03:47:25;;;;;;;2.53;2.42;;;;;;;19.98;67.59;102091.97;6310651;28;20238;-75
2021/07/12 03:50:29;;;;;;;6.40;2.63;;;;;;;19.91;67.34;102086.59;6310385;28;20564;-75
2021/07/12 03:53:36;;;;;;;2.47;2.40;;;;;;;20.07;67.47;102092.44;6311422;28;20211;-75
2021/07/12 03:56:42;;;;;;;2.38;2.17;;;;;;;20.02;67.44;102086.78;6311971;28;20183;-75
2021/07/12 03:59:46;;;;;;;2.60;2.50;;;;;;;20.05;67.29;102091.84;6310009;28;20368;-75
2021/07/12 04:02:50;;;;;;;2.55;2.47;;;;;;;20.04;67.35;102079.06;6311653;28;20246;-75
2021/07/12 04:05:54;;;;;;;2.78;2.67;;;;;;;20.03;67.04;102096.78;6311751;28;20222;-75
2021/07/12 04:08:59;;;;;;;3.95;2.47;;;;;;;20.12;66.95;102100.81;6313365;28;20239;-75
2021/07/12 04:12:05;;;;;;;2.30;2.20;;;;;;;20.22;67.60;102089.91;6314743;28;20474;-74
2021/07/12 04:15:12;;;;;;;2.58;2.42;;;;;;;20.29;67.30;102090.63;6314684;28;20184;-75
2021/07/12 04:18:16;;;;;;;2.60;2.50;;;;;;;20.32;67.19;102095.66;6315677;28;20215;-75
2021/07/12 04:21:20;;;;;;;2.60;2.50;;;;;;;20.37;67.09;102092.97;6315420;28;20191;-75
2021/07/12 04:24:24;;;;;;;2.42;2.33;;;;;;;20.45;68.26;102087.03;6315685;28;20187;-74
2021/07/12 04:27:30;;;;;;;2.70;2.60;;;;;;;20.47;68.42;102082.06;6313750;28;20485;-74
2021/07/12 04:30:35;;;;;;;2.17;2.15;;;;;;;20.33;66.70;102080.72;6314431;28;20417;-75
2021/07/12 04:33:39;;;;;;;2.83;2.63;;;;;;;20.43;67.27;102075.34;6340821;28;20219;-75
2021/07/12 04:36:43;;;;;;;2.70;2.60;;;;;;;20.42;66.98;102068.13;6339419;28;20462;-74
2021/07/12 04:39:50;;;;;;;2.55;2.45;;;;;;;20.51;66.53;102086.88;6321468;28;20265;-75
2021/07/12 04:42:56;;;;;;;2.33;2.20;;;;;;;20.52;65.69;102091.28;6340604;28;20250;-75
2021/07/12 04:46:00;;;;;;;2.97;2.88;;;;;;;20.53;66.40;102087.44;6340374;28;20190;-74
2021/07/12 04:49:05;;;;;;;2.60;2.40;;;;;;;20.58;64.38;102089.44;6321428;28;20490;-74
2021/07/12 04:52:10;;;;;;;2.63;2.42;;;;;;;20.64;64.40;102077.34;6321870;28;20198;-75
2021/07/12 04:55:14;;;;;;;2.55;2.45;;;;;;;20.64;66.74;102084.84;6340015;28;20189;-75
2021/07/12 04:58:20;;;;;;;3.67;2.50;;;;;;;20.61;66.68;102083.41;6338820;28;20507;-75
2021/07/12 05:01:26;;;;;;;2.42;2.33;;;;;;;20.61;66.55;102083.41;6320652;28;20203;-74
2021/07/12 05:04:32;;;;;;;2.83;2.63;;;;;;;20.68;67.51;102089.59;6339775;28;20257;-76
2021/07/12 05:07:39;;;;;;;2.60;2.40;;;;;;;20.76;67.72;102078.09;6339209;28;20190;-75
2021/07/12 05:10:43;;;;;;;5.88;2.50;;;;;;;20.70;67.08;102081.88;6320943;28;20553;-75
2021/07/12 05:13:49;;;;;;;3.95;2.80;;;;;;;20.78;68.22;102086.97;6339805;28;20190;-75
2021/07/12 05:16:54;;;;;;;2.65;2.55;;;;;;;20.67;67.02;102085.19;6338479;28;20497;-74
2021/07/12 05:19:58;;;;;;;2.65;2.45;;;;;;;20.51;66.48;102088.78;6339173;28;20187;-74
2021/07/12 05:23:02;;;;;;;3.08;2.42;;;;;;;20.65;66.43;102090.09;6338674;28;20182;-75
2021/07/12 05:26:07;;;;;;;2.78;2.58;;;;;;;20.76;66.94;102086.41;6339566;28;20183;-75
2021/07/12 05:29:12;;;;;;;2.60;2.50;;;;;;;20.84;66.58;102083.19;6337865;28;20214;-75
2021/07/12 05:32:16;;;;;;;2.35;2.25;;;;;;;20.91;65.13;102083.84;6320239;28;20587;-74
2021/07/12 05:35:20;;;;;;;2.80;2.80;;;;;;;21.11;65.24;102084.16;6338262;28;20206;-75
2021/07/12 05:38:25;;;;;;;2.75;2.58;;;;;;;21.31;65.70;102088.31;6338099;28;20182;-74
2021/07/12 05:41:29;;;;;;;2.83;2.67;;;;;;;21.47;64.88;102087.41;6338772;28;20193;-75
2021/07/12 05:44:35;;;;;;;3.20;2.35;;;;;;;21.62;63.12;102076.47;6338046;28;20183;-75
2021/07/12 05:47:40;;;;;;;3.55;2.75;;;;;;;21.77;63.25;102071.09;6338657;28;20214;-75
2021/07/12 05:50:44;;;;;;;2.83;2.63;;;;;;;21.97;63.60;102074.09;6337494;28;20210;-75
2021/07/12 05:53:48;;;;;;;4.88;2.45;;;;;;;22.04;62.56;102080.28;6338453;28;20183;-75
2021/07/12 05:56:53;;;;;;;2.60;2.50;;;;;;;22.12;61.79;102074.25;6338797;28;20190;-75
2021/07/12 05:59:58;;;;;;;2.55;2.33;;;;;;;22.17;61.49;102076.22;6337260;28;20414;-75
2021/07/12 06:03:02;;;;;;;2.70;2.50;;;;;;;22.33;60.81;102070.53;6338602;28;20182;-75
2021/07/12 06:06:07;;;;;;;4.20;2.50;;;;;;;22.37;60.43;102073.63;6337601;28;20190;-75
2021/07/12 06:09:13;;;;;;;2.72;2.42;;;;;;;22.37;60.45;102066.13;6337449;28;20469;-75
2021/07/12 06:12:18;;;;;;;2.88;2.67;;;;;;;22.50;60.38;102064.81;6338220;28;20210;-75
2021/07/12 06:15:23;;;;;;;2.60;2.40;;;;;;;22.53;59.54;102063.44;6338278;28;20220;-75
2021/07/12 06:18:27;;;;;;;2.80;2.45;;;;;;;22.58;59.32;102050.41;6338077;28;20223;-75
2021/07/12 06:21:32;;;;;;;2.53;2.45;;;;;;;22.49;59.26;102053.97;6337945;28;20218;-75
2021/07/12 06:24:36;;;;;;;2.70;2.58;;;;;;;22.54;58.88;102057.63;6338175;28;20183;-75
2021/07/12 06:27:40;;;;;;;2.65;2.53;;;;;;;22.67;58.11;102060.00;6337672;28;20272;-75
2021/07/12 06:30:45;;;;;;;4.00;2.40;;;;;;;22.65;56.99;102062.19;6336809;28;20296;-75
2021/07/12 06:33:49;;;;;;;2.55;2.33;;;;;;;22.57;56.04;102059.03;6336718;28;20591;-75
2021/07/12 06:36:54;;;;;;;2.47;2.28;;;;;;;22.60;56.27;102047.38;6337973;28;20183;-75
2021/07/12 06:39:58;;;;;;;2.80;2.60;;;;;;;22.69;57.51;102056.94;6337774;28;20183;-75
2021/07/12 06:43:03;;;;;;;2.70;2.50;;;;;;;22.77;58.06;102059.22;6336538;28;20183;-75
2021/07/12 06:46:15;;;;;;;4.50;2.55;;;;;;;22.80;57.76;102056.69;6318605;28;20221;-75
2021/07/12 06:49:21;;;;;;;4.28;2.60;;;;;;;22.90;57.46;102058.72;6318325;28;20205;-74
2021/07/12 06:52:26;;;;;;;2.60;2.50;;;;;;;22.85;57.08;102067.06;6337542;28;20237;-74
2021/07/12 06:55:30;;;;;;;3.90;2.50;;;;;;;22.96;56.44;102057.63;6337253;28;20206;-74
2021/07/12 06:58:34;;;;;;;2.60;2.50;;;;;;;22.86;57.17;102057.56;6337045;28;20190;-75
2021/07/12 07:01:40;;;;;;;6.43;2.80;;;;;;;22.81;56.46;102057.53;6335963;28;20357;-74
2021/07/12 07:04:44;;;;;;;3.50;2.92;;;;;;;22.74;57.89;102077.28;6318677;28;20198;-75
2021/07/12 07:07:49;;;;;;;3.20;2.90;;;;;;;22.97;58.26;102064.88;6337040;28;20268;-75
2021/07/12 07:10:54;;;;;;;2.63;2.42;;;;;;;23.04;57.77;102062.69;6335805;28;20268;-75
2021/07/12 07:13:58;;;;;;;3.08;2.80;;;;;;;23.08;58.84;102067.44;6337189;28;20250;-75
2021/07/12 07:17:04;;;;;;;2.80;2.60;;;;;;;23.23;56.81;102069.47;6336785;28;20190;-75
2021/07/12 07:20:10;;;;;;;2.78;2.60;;;;;;;23.22;57.24;102070.56;6335658;28;20183;-75
2021/07/12 07:23:14;;;;;;;3.13;2.80;;;;;;;23.12;57.99;102072.47;6335687;28;20187;-75
2021/07/12 07:26:18;;;;;;;3.10;2.90;;;;;;;23.15;57.84;102067.22;6335623;28;20189;-75
2021/07/12 07:29:22;;;;;;;7.32;2.97;;;;;;;23.47;57.94;102070.69;6335668;28;20270;-75
2021/07/12 07:32:28;;;;;;;5.28;3.20;;;;;;;23.55;56.79;102061.81;6309517;28;20296;-75
2021/07/12 07:35:33;;;;;;;4.70;3.00;;;;;;;23.67;56.35;102065.22;6311417;28;20219;-76
2021/07/12 07:38:38;;;;;;;3.00;2.75;;;;;;;23.67;57.22;102062.44;6311411;28;20183;-74
2021/07/12 07:41:42;;;;;;;3.83;2.75;;;;;;;23.73;56.85;102062.44;6312762;28;20219;-74
2021/07/12 07:44:46;;;;;;;3.17;2.75;;;;;;;23.72;56.54;102067.16;6315806;28;20209;-75
2021/07/12 07:47:52;;;;;;;3.08;2.88;;;;;;;23.72;57.51;102060.75;6315082;28;20367;-75
2021/07/12 07:50:56;;;;;;;3.15;2.65;;;;;;;23.89;57.02;102061.34;6313960;28;20199;-76
2021/07/12 07:54:01;;;;;;;2.90;2.70;;;;;;;23.99;56.08;102072.50;6316701;28;20191;-75
2021/07/12 07:57:06;;;;;;;2.90;2.70;;;;;;;24.08;56.10;102059.72;6316292;28;20278;-75
2021/07/12 08:00:13;;;;;;;6.45;3.15;;;;;;;24.30;54.87;102051.91;6314869;28;20184;-75
2021/07/12 08:03:21;;;;;;;4.07;2.85;;;;;;;24.34;55.64;102057.78;6316013;28;20188;-75
2021/07/12 08:06:26;;;;;;;6.32;3.47;;;;;;;24.48;54.27;102056.94;6316033;28;20198;-75
2021/07/12 08:09:30;;;;;;;2.95;2.92;;;;;;;24.49;54.37;102063.34;6316010;28;20188;-75
2021/07/12 08:12:34;;;;;;;4.22;3.08;;;;;;;24.51;53.33;102073.13;6314557;28;20515;-75
2021/07/12 08:15:39;;;;;;;4.60;3.47;;;;;;;24.55;54.67;102049.09;6314547;28;20184;-75
2021/07/12 08:18:45;;;;;;;6.28;3.15;;;;;;;24.61;54.30;102048.00;6315754;28;20221;-75
2021/07/12 08:21:49;;;;;;;3.20;2.92;;;;;;;24.67;53.51;102048.81;6314200;28;20251;-75
2021/07/12 08:24:53;;;;;;;4.47;3.70;;;;;;;24.68;53.29;102048.53;6315161;28;20261;-75
2021/07/12 08:27:58;;;;;;;3.08;2.90;;;;;;;24.53;54.03;102051.34;6315049;28;20191;-75
2021/07/12 08:31:03;;;;;;;5.63;3.30;;;;;;;24.46;53.64;102050.81;6316829;28;20234;-75
2021/07/12 08:34:09;;;;;;;4.68;2.67;;;;;;;24.61;54.03;102048.00;6340173;28;20190;-75
2021/07/12 08:37:13;;;;;;;3.42;3.10;;;;;;;24.46;56.11;102049.97;6338950;28;20466;-75
2021/07/12 08:40:20;;;;;;;3.88;3.10;;;;;;;24.53;56.40;102045.75;6339545;28;20187;-75
2021/07/12 08:43:25;;;;;;;3.17;3.08;;;;;;;24.59;54.80;102050.22;6339516;28;20190;-74
2021/07/12 08:46:46;;;;;;;5.50;3.53;;;;;;;24.76;54.20;102056.31;6340072;28;20254;-74
2021/07/12 08:49:52;;;;;;;4.10;3.33;;;;;;;24.87;53.55;102058.03;6339170;28;20252;-74
2021/07/12 08:52:56;;;;;;;22.92;3.78;;;;;;;25.02;53.80;102053.50;6339116;28;20259;-75
2021/07/12 08:56:01;;;;;;;4.60;2.90;;;;;;;24.97;52.87;102045.13;6339658;28;20183;-75
2021/07/12 08:59:27;;;;;;;37.22;4.10;;;;;;;24.93;52.15;102052.41;6321288;28;20222;-75
2021/07/12 09:02:32;;;;;;;3.72;3.40;;;;;;;24.89;52.19;102055.78;6339523;28;20205;-75
2021/07/12 09:05:56;;;;;;;3.63;2.70;;;;;;;24.94;52.20;102040.94;6321802;28;20221;-74
2021/07/12 09:09:05;;;;;;;5.00;2.90;;;;;;;24.92;52.25;102042.34;6339270;28;20183;-74
2021/07/12 09:12:12;;;;;;;3.03;2.92;;;;;;;24.73;51.95;102040.13;6339247;28;20210;-75
2021/07/12 09:15:18;;;;;;;3.00;2.75;;;;;;;24.83;52.95;102034.56;6338301;28;20522;-75
2021/07/12 09:18:22;;;;;;;3.17;2.90;;;;;;;25.04;52.05;102034.53;6339663;28;20183;-74
2021/07/12 09:21:32;;;;;;;3.00;2.90;;;;;;;24.89;52.53;102027.84;6338411;28;20183;-75
2021/07/12 09:24:39;;;;;;;4.70;2.90;;;;;;;24.77;52.04;102030.09;6338822;28;20194;-75
2021/07/12 09:27:44;;;;;;;3.35;3.17;;;;;;;24.78;52.50;102034.56;6338241;28;20182;-75
2021/07/12 09:30:48;;;;;;;3.08;2.70;;;;;;;24.87;52.44;102018.94;6338832;28;20403;-75
2021/07/12 09:33:52;;;;;;;4.15;3.33;;;;;;;24.82;52.93;102032.91;6338907;28;20305;-75
2021/07/12 09:37:13;;;;;;;3.05;2.92;;;;;;;24.67;52.12;102038.50;6339032;28;20183;-75
2021/07/12 09:40:19;;;;;;;3.83;3.13;;;;;;;24.77;52.81;102035.69;6339153;28;20241;-75
2021/07/12 09:43:32;;;;;;;3.67;3.38;;;;;;;24.85;52.56;102021.19;6337664;28;20372;-75
2021/07/12 09:46:36;;;;;;;4.53;3.13;;;;;;;24.97;51.77;102031.16;6339039;28;20186;-75
2021/07/12 09:49:41;;;;;;;2.97;2.80;;;;;;;25.07;52.40;102029.19;6337468;28;20216;-76
2021/07/12 09:52:49;;;;;;;3.28;3.08;;;;;;;25.02;51.38;102020.00;6339401;28;20213;-76
2021/07/12 09:55:55;;;;;;;3.00;2.90;;;;;;;25.10;51.59;102027.78;6337537;28;20183;-77
2021/07/12 09:58:59;;;;;;;3.25;2.95;;;;;;;25.18;50.56;102035.56;6338240;28;20250;-74
2021/07/12 10:02:04;;;;;;;5.07;3.22;;;;;;;25.20;49.28;102028.56;6338248;28;20190;-75
2021/07/12 10:05:11;;;;;;;7.53;3.45;;;;;;;25.32;49.20;102031.06;6320251;28;20199;-75
2021/07/12 10:08:17;;;;;;;10.85;5.40;;;;;;;25.42;50.55;102025.41;6336873;28;20483;-75
2021/07/12 10:11:23;;;;;;;3.78;3.40;;;;;;;25.34;50.33;102034.38;6336918;28;20376;-75
2021/07/12 10:14:27;;;;;;;6.68;3.80;;;;;;;25.32;51.17;102019.88;6337658;28;20210;-74
2021/07/12 10:17:32;;;;;;;4.43;3.17;;;;;;;25.10;50.86;102027.78;6337668;28;20206;-74
2021/07/12 10:20:38;;;;;;;8.30;3.60;;;;;;;25.24;51.06;102029.66;6336394;28;20246;-74
2021/07/12 10:23:45;;;;;;;6.63;3.60;;;;;;;25.20;49.96;102027.72;6337418;28;20187;-75
2021/07/12 10:27:00;;;;;;;10.65;4.90;;;;;;;25.21;50.60;102029.41;6337677;28;20183;-75
2021/07/12 10:30:25;;;;;;;8.95;5.35;;;;;;;25.21;50.87;102024.66;6336597;28;20382;-76
2021/07/12 10:33:32;;;;;;;12.50;4.90;;;;;;;25.28;51.14;102029.94;6336485;28;20270;-76
2021/07/12 10:36:38;;;;;;;5.07;2.80;;;;;;;25.28;51.20;102035.53;6319083;28;20490;-76
2021/07/12 10:40:09;;;;;;;7.65;4.18;;;;;;;25.28;51.31;102029.94;6337346;28;20272;-76
2021/07/12 10:43:13;;;;;;;5.40;3.47;;;;;;;25.35;51.94;102024.88;6337119;28;20194;-76
2021/07/12 10:46:42;;;;;;;4.30;3.60;;;;;;;25.53;52.37;102018.66;6337239;28;20221;-76
2021/07/12 10:49:47;;;;;;;6.10;3.60;;;;;;;25.61;52.80;102012.47;6337096;28;20190;-76
2021/07/12 10:52:51;;;;;;;3.55;3.45;;;;;;;25.67;52.52;102008.50;6318181;28;20405;-76
2021/07/12 10:56:07;;;;;;;6.75;3.63;;;;;;;25.59;52.28;101997.94;6336072;28;20474;-76
2021/07/12 10:59:27;;;;;;;4.43;3.55;;;;;;;25.56;51.12;102009.69;6337268;28;20183;-76
2021/07/12 11:02:32;;;;;;;4.10;3.88;;;;;;;25.75;51.16;101996.72;6337104;28;20236;-76
2021/07/12 11:05:51;;;;;;;3.95;3.60;;;;;;;25.80;51.23;101998.63;6337133;28;20183;-76
2021/07/12 11:08:56;;;;;;;4.10;3.20;;;;;;;25.83;51.75;101990.50;6336113;28;20470;-76
2021/07/12 11:12:39;;;;;;;3.67;3.50;;;;;;;25.92;52.31;101999.09;6337389;28;20190;-75
2021/07/12 11:15:45;;;;;;;5.78;3.47;;;;;;;26.07;50.48;101993.38;6319148;28;20199;-75
2021/07/12 11:19:24;;;;;;;3.00;2.90;;;;;;;25.99;49.19;101985.59;6342455;28;20187;-75
2021/07/12 11:22:28;;;;;;;3.42;3.33;;;;;;;26.26;49.22;101990.72;6341400;28;20194;-75
2021/07/12 11:25:40;;;;;;;3.50;3.20;;;;;;;26.41;48.78;101987.78;6341724;28;20278;-75
2021/07/12 11:28:48;;;;;;;3.80;3.40;;;;;;;26.47;49.60;101975.41;6341632;28;20183;-75
2021/07/12 11:31:55;;;;;;;3.30;3.20;;;;;;;26.58;49.94;101982.53;6341798;28;20340;-75
2021/07/12 11:34:59;;;;;;;3.42;3.22;;;;;;;26.57;49.60;101986.50;6341732;28;20244;-75
2021/07/12 11:38:08;;;;;;;3.10;3.00;;;;;;;26.34;49.65;101976.94;6342034;28;20190;-75
2021/07/12 11:41:12;;;;;;;3.90;3.28;;;;;;;26.18;49.55;101982.97;6341831;28;20246;-75
2021/07/12 11:44:19;;;;;;;4.40;4.10;;;;;;;26.13;48.50;101974.63;6340536;28;20495;-75
2021/07/12 11:47:27;;;;;;;3.53;3.42;;;;;;;26.35;48.27;101972.16;6341279;28;20281;-75
2021/07/12 11:50:35;;;;;;;3.88;3.33;;;;;;;26.37;48.30;101981.13;6340275;28;20467;-75
2021/07/12 11:53:46;;;;;;;3.58;3.28;;;;;;;26.30;48.35;101969.41;6341154;28;20217;-76
2021/07/12 11:56:58;;;;;;;3.50;3.40;;;;;;;26.09;48.18;101969.56;6341218;28;20183;-75
2021/07/12 12:00:07;;;;;;;3.70;3.50;;;;;;;26.20;48.69;101977.91;6341319;28;20266;-75
2021/07/12 12:03:14;;;;;;;4.28;3.83;;;;;;;26.00;46.70;101976.94;6341469;28;20183;-75
2021/07/12 12:06:23;;;;;;;4.05;3.78;;;;;;;26.14;48.19;101987.50;6339894;28;20356;-75
2021/07/12 12:09:49;;;;;;;4.85;3.70;;;;;;;26.01;51.12;101981.38;6325042;28;20229;-75
2021/07/12 12:13:16;;;;;;;3.45;3.15;;;;;;;26.13;51.20;101981.06;6339965;28;20198;-75
2021/07/12 12:16:43;;;;;;;4.13;4.03;;;;;;;25.91;51.21;101973.09;6340112;28;20229;-75
2021/07/12 12:20:18;;;;;;;3.88;3.50;;;;;;;26.02;49.91;101973.84;6325849;28;20201;-75
2021/07/12 12:23:41;;;;;;;3.55;3.22;;;;;;;25.93;51.09;101976.44;6324936;28;20191;-75
2021/07/12 12:26:46;;;;;;;3.72;3.53;;;;;;;26.02;51.37;101968.25;6340911;28;20182;-75
2021/07/12 12:29:50;;;;;;;3.70;3.50;;;;;;;25.92;48.07;101969.19;6338852;28;20199;-75
2021/07/12 12:33:01;;;;;;;3.53;3.30;;;;;;;26.07;49.02;101963.44;6339555;28;20235;-75
2021/07/12 12:36:11;;;;;;;3.65;3.28;;;;;;;25.94;47.92;101966.91;6340561;28;20214;-75
2021/07/12 12:39:21;;;;;;;4.72;3.45;;;;;;;26.05;46.95;101971.31;6340645;28;20186;-75
2021/07/12 12:42:28;;;;;;;3.00;2.95;;;;;;;26.04;45.67;101964.03;6339546;28;20277;-75
2021/07/12 12:45:33;;;;;;;7.75;3.40;;;;;;;26.14;45.40;101965.13;6339118;28;20187;-75
2021/07/12 12:48:42;;;;;;;4.88;3.30;;;;;;;26.15;45.92;101962.00;6340357;28;20202;-75
2021/07/12 12:51:51;;;;;;;3.40;3.10;;;;;;;26.26;44.97;101952.41;6338842;28;20444;-75
2021/07/12 12:55:08;;;;;;;3.85;3.75;;;;;;;26.40;43.91;101958.16;6340105;28;20217;-75
2021/07/12 12:58:13;;;;;;;4.85;3.50;;;;;;;26.55;44.29;101960.78;6321732;28;20199;-75
2021/07/12 13:01:17;;;;;;;3.85;3.65;;;;;;;26.61;43.81;101949.22;6339885;28;20183;-76
2021/07/12 13:04:23;;;;;;;6.10;3.50;;;;;;;26.73;44.56;101946.81;6338527;28;20390;-76
2021/07/12 13:07:54;;;;;;;4.22;3.15;;;;;;;26.63;43.30;101951.72;6339822;28;20191;-76
2021/07/12 13:11:27;;;;;;;3.58;2.72;;;;;;;26.69;44.08;101950.53;6338583;28;20183;-76
2021/07/12 13:14:53;;;;;;;2.40;2.30;;;;;;;26.63;43.37;101946.13;6338529;28;20246;-75
2021/07/12 13:18:16;;;;;;;4.57;3.13;;;;;;;26.74;43.88;101953.25;6338650;28;20228;-76
2021/07/12 13:21:52;;;;;;;5.75;2.80;;;;;;;26.55;44.52;101950.38;6338349;28;20198;-76
2021/07/12 13:25:16;;;;;;;3.90;2.70;;;;;;;26.72;45.88;101949.94;6338722;28;20179;-76
2021/07/12 13:28:49;;;;;;;4.32;3.13;;;;;;;26.65;44.51;101947.50;6338019;28;20474;-76
2021/07/12 13:32:13;;;;;;;2.85;2.65;;;;;;;26.71;44.83;101945.44;6338262;28;20229;-76
2021/07/12 13:35:37;;;;;;;7.82;2.97;;;;;;;26.66;44.96;101939.91;6339043;28;20210;-76
2021/07/12 13:39:03;;;;;;;5.82;3.03;;;;;;;26.79;44.72;101933.63;6337740;28;20221;-76
2021/07/12 13:42:29;;;;;;;3.13;2.80;;;;;;;26.91;43.98;101941.63;6323100;28;20272;-76
2021/07/12 13:45:49;;;;;;;2.83;2.47;;;;;;;27.60;42.63;101929.69;6337695;28;20186;-75
2021/07/12 13:49:08;;;;;;;9.25;2.83;;;;;;;28.23;42.17;101930.84;6337653;28;20413;-75
2021/07/12 13:52:28;;;;;;;3.08;2.97;;;;;;;28.20;41.19;101925.00;6337548;28;20205;-75
2021/07/12 13:55:54;;;;;;;4.40;2.97;;;;;;;29.39;38.09;101928.44;6337423;28;20248;-75
2021/07/12 13:59:14;;;;;;;2.75;2.67;;;;;;;30.32;36.25;101918.19;6338418;28;20209;-75
2021/07/12 14:02:38;;;;;;;2.92;2.67;;;;;;;30.67;36.31;101922.84;6322135;28;20424;-76
2021/07/12 14:06:02;;;;;;;11.25;2.88;;;;;;;30.65;36.24;101919.53;6337436;28;20226;-76
2021/07/12 14:09:07;;;;;;;5.38;3.03;;;;;;;30.30;37.38;101928.97;6337506;28;20222;-76
2021/07/12 14:12:15;;;;;;;2.92;2.92;;;;;;;30.53;37.42;101922.13;6337279;28;20265;-74
2021/07/12 14:15:20;;;;;;;2.85;2.75;;;;;;;30.30;37.51;101914.88;6338120;28;20207;-75
2021/07/12 14:18:45;;;;;;;4.38;3.00;;;;;;;29.75;37.31;101918.00;6338011;28;20218;-76
2021/07/12 14:21:50;;;;;;;3.40;3.15;;;;;;;29.40;38.18;101916.06;6319198;28;20480;-75
2021/07/12 14:24:54;;;;;;;9.65;3.08;;;;;;;29.14;38.28;101917.75;6319662;28;20277;-75
2021/07/12 14:27:59;;;;;;;6.07;2.72;;;;;;;28.58;37.55;101918.91;6337867;28;20183;-75
2021/07/12 14:31:03;;;;;;;4.10;2.67;;;;;;;28.58;37.88;101921.72;6337239;28;20202;-75
2021/07/12 14:34:08;;;;;;;5.07;2.92;;;;;;;28.43;38.56;101910.81;6336365;28;20235;-75
2021/07/12 14:37:13;;;;;;;7.15;2.97;;;;;;;28.19;39.54;101907.38;6337367;28;20210;-76
2021/07/12 14:40:18;;;;;;;3.15;2.92;;;;;;;28.26;39.14;101907.78;6336414;28;20468;-75